createdAt,value
2022-12-25T00:01:52.696Z,101032.25
2022-12-25T00:04:55.083Z,101027.84
2022-12-25T00:07:57.147Z,101028.69
2022-12-25T00:11:05.905Z,101033.25
2022-12-25T00:14:07.970Z,101041.03
2022-12-25T00:17:09.941Z,101046.28
2022-12-25T00:20:12.015Z,101041.25
2022-12-25T00:23:15.266Z,101036.50
2022-12-25T00:26:17.973Z,101045.38
2022-12-25T00:29:20.269Z,101060.69
2022-12-25T00:32:22.382Z,101057.78
2022-12-25T00:35:24.269Z,101054.28
2022-12-25T00:38:26.849Z,101066.00
2022-12-25T00:41:47.706Z,101028.34
2022-12-25T00:44:51.972Z,101063.09
2022-12-25T00:47:54.284Z,101059.69
2022-12-25T00:50:58.745Z,101063.66
2022-12-25T00:54:00.944Z,101069.66
2022-12-25T00:57:03.499Z,101054.47
2022-12-25T01:00:06.064Z,101057.16
2022-12-25T01:03:10.371Z,101049.22
2022-12-25T01:06:13.283Z,101047.69
2022-12-25T01:09:34.984Z,101062.44
2022-12-25T01:12:40.150Z,101045.25
2022-12-25T01:15:42.507Z,101057.66
2022-12-25T01:18:47.006Z,101054.34
2022-12-25T01:21:48.997Z,101041.25
2022-12-25T01:24:51.120Z,101062.28
2022-12-25T01:27:53.157Z,101059.53
2022-12-25T01:30:55.149Z,101053.75
2022-12-25T01:33:57.337Z,101049.06
2022-12-25T01:36:59.491Z,101061.69
2022-12-25T01:40:02.342Z,101049.25
2022-12-25T01:43:05.226Z,101062.59
2022-12-25T01:46:07.463Z,101071.38
2022-12-25T01:49:25.185Z,101067.84
2022-12-25T01:52:27.390Z,101057.06
2022-12-25T01:55:30.654Z,101055.03
2022-12-25T01:58:33.578Z,101046.78
2022-12-25T02:01:36.178Z,101070.41
2022-12-25T02:04:52.332Z,101057.13
2022-12-25T02:07:55.962Z,101058.28
2022-12-25T02:10:58.839Z,101067.81
2022-12-25T02:14:01.848Z,101071.22
2022-12-25T02:17:39.435Z,101077.13
2022-12-25T02:21:00.147Z,101088.81
2022-12-25T02:24:40.255Z,101075.63
2022-12-25T02:28:04.269Z,101085.28
2022-12-25T02:31:39.194Z,101082.22
2022-12-25T02:34:44.404Z,101086.88
2022-12-25T02:37:56.077Z,101089.94
2022-12-25T02:41:02.535Z,101077.31
2022-12-25T02:44:30.884Z,101104.84
2022-12-25T02:47:53.022Z,101066.56
2022-12-25T02:51:15.784Z,101096.59
2022-12-25T02:54:40.993Z,101110.63
2022-12-25T02:58:07.580Z,101109.31
2022-12-25T03:01:37.543Z,101118.97
2022-12-25T03:04:58.139Z,101102.03
2022-12-25T03:08:05.172Z,101101.38
2022-12-25T03:11:29.197Z,101124.28
2022-12-25T03:14:49.658Z,101124.28
2022-12-25T03:17:54.907Z,101105.59
2022-12-25T03:21:18.229Z,101136.78
2022-12-25T03:24:40.183Z,101139.84
2022-12-25T03:27:58.174Z,101136.53
2022-12-25T03:31:13.579Z,101150.41
2022-12-25T03:34:53.088Z,101167.81
2022-12-25T03:38:25.793Z,101171.22
2022-12-25T03:42:06.359Z,101169.53
2022-12-25T03:45:31.519Z,101180.84
2022-12-25T03:48:58.490Z,101175.28
2022-12-25T03:52:21.839Z,101175.28
2022-12-25T03:55:45.159Z,101161.47
2022-12-25T03:59:21.111Z,101180.25
2022-12-25T04:02:44.644Z,101181.84
2022-12-25T04:06:05.352Z,101176.47
2022-12-25T04:09:26.113Z,101172.69
2022-12-25T04:12:46.877Z,101180.66
2022-12-25T04:16:07.788Z,101179.31
2022-12-25T04:19:28.885Z,101177.97
2022-12-25T04:22:49.520Z,101178.66
2022-12-25T04:26:10.207Z,101167.56
2022-12-25T04:29:30.848Z,101191.06
2022-12-25T04:32:51.812Z,101201.50
2022-12-25T04:36:12.977Z,101185.00
2022-12-25T04:39:15.008Z,101207.28
2022-12-25T04:42:18.075Z,101221.78
2022-12-25T04:45:20.471Z,101222.13
2022-12-25T04:48:23.059Z,101224.13
2022-12-25T04:51:25.959Z,101214.16
2022-12-25T04:54:28.291Z,101222.25
2022-12-25T04:57:30.342Z,101233.72
2022-12-25T05:00:32.382Z,101229.16
2022-12-25T05:03:34.978Z,101234.75
2022-12-25T05:06:37.122Z,101240.16
2022-12-25T05:09:41.955Z,101235.09
2022-12-25T05:12:44.558Z,101233.06
2022-12-25T05:15:46.956Z,101249.97
2022-12-25T05:18:51.136Z,101261.31
2022-12-25T05:21:55.176Z,101250.00
2022-12-25T05:24:57.291Z,101265.88
2022-12-25T05:27:59.364Z,101261.50
2022-12-25T05:31:01.415Z,101257.78
2022-12-25T05:34:03.584Z,101269.94
2022-12-25T05:37:05.796Z,101267.72
2022-12-25T05:40:11.129Z,101265.09
2022-12-25T05:43:13.225Z,101259.63
2022-12-25T05:46:15.345Z,101254.19
2022-12-25T05:49:17.388Z,101260.66
2022-12-25T05:52:19.478Z,101253.53
2022-12-25T05:55:21.584Z,101267.06
2022-12-25T05:58:23.716Z,101268.81
2022-12-25T06:01:28.866Z,101272.19
2022-12-25T06:04:31.030Z,101281.25
2022-12-25T06:07:33.312Z,101274.56
2022-12-25T06:10:36.559Z,101270.81
2022-12-25T06:13:41.542Z,101268.16
2022-12-25T06:16:43.750Z,101280.88
2022-12-25T06:19:46.174Z,101290.28
2022-12-25T06:22:49.508Z,101295.34
2022-12-25T06:25:51.583Z,101300.44
2022-12-25T06:28:53.784Z,101287.16
2022-12-25T06:31:57.546Z,101289.31
2022-12-25T06:34:59.676Z,101298.31
2022-12-25T06:38:07.032Z,101311.91
2022-12-25T06:41:11.123Z,101323.78
2022-12-25T06:44:14.166Z,101331.41
2022-12-25T06:47:16.243Z,101338.91
2022-12-25T06:50:18.621Z,101345.63
2022-12-25T06:53:20.721Z,101355.16
2022-12-25T06:56:25.561Z,101341.28
2022-12-25T06:59:27.608Z,101359.25
2022-12-25T07:02:30.091Z,101356.38
2022-12-25T07:05:32.162Z,101366.19
2022-12-25T07:08:36.660Z,101375.53
2022-12-25T07:11:38.778Z,101369.44
2022-12-25T07:14:42.083Z,101358.66
2022-12-25T07:17:44.566Z,101372.66
2022-12-25T07:20:46.827Z,101381.50
2022-12-25T07:23:50.212Z,101392.94
2022-12-25T07:26:53.667Z,101389.06
2022-12-25T07:29:55.861Z,101402.03
2022-12-25T07:32:57.850Z,101396.06
2022-12-25T07:36:01.081Z,101416.38
2022-12-25T07:39:05.519Z,101434.38
2022-12-25T07:42:07.626Z,101417.47
2022-12-25T07:45:13.211Z,101411.22
2022-12-25T07:48:16.935Z,101421.56
2022-12-25T07:51:19.273Z,101447.44
2022-12-25T07:54:21.615Z,101453.56
2022-12-25T07:57:26.972Z,101450.47
2022-12-25T08:00:32.843Z,101442.28
2022-12-25T08:03:35.739Z,101446.25
2022-12-25T08:06:41.053Z,101449.28
2022-12-25T08:09:45.351Z,101456.94
2022-12-25T08:12:47.488Z,101477.88
2022-12-25T08:15:49.611Z,101462.78
2022-12-25T08:18:51.867Z,101482.91
2022-12-25T08:21:53.913Z,101482.22
2022-12-25T08:24:56.008Z,101489.22
2022-12-25T08:28:01.500Z,101501.75
2022-12-25T08:31:18.097Z,101505.13
2022-12-25T08:34:20.571Z,101507.03
2022-12-25T08:37:22.677Z,101513.03
2022-12-25T08:40:26.356Z,101502.69
2022-12-25T08:53:54.164Z,101437.41
2022-12-25T09:17:19.457Z,101538.78
2022-12-25T09:24:19.497Z,101507.78
2022-12-25T09:27:53.491Z,101542.56
2022-12-25T09:30:55.787Z,101542.00
2022-12-25T09:33:58.861Z,101544.88
2022-12-25T09:37:01.245Z,101558.69
2022-12-25T09:40:04.399Z,101554.84
2022-12-25T09:43:06.391Z,101555.25
2022-12-25T09:46:15.358Z,101561.41
2022-12-25T09:49:39.294Z,101570.94
2022-12-25T09:52:52.797Z,101562.84
2022-12-25T09:56:12.924Z,101556.94
2022-12-25T09:59:25.748Z,101563.69
2022-12-25T10:02:34.134Z,101569.25
2022-12-25T10:05:49.967Z,101564.94
2022-12-25T10:09:03.716Z,101554.97
2022-12-25T10:12:27.361Z,101552.91
2022-12-25T10:16:07.548Z,101545.88
2022-12-25T10:19:34.814Z,101550.69
2022-12-25T10:23:00.515Z,101540.41
2022-12-25T10:26:17.376Z,101533.72
2022-12-25T10:29:20.177Z,101516.59
2022-12-25T10:32:23.164Z,101544.38
2022-12-25T10:35:28.139Z,101534.56
2022-12-25T10:38:30.159Z,101525.72
2022-12-25T10:41:53.976Z,101549.97
2022-12-25T10:45:01.156Z,101552.66
2022-12-25T10:48:08.194Z,101558.88
2022-12-25T10:51:13.965Z,101548.38
2022-12-25T10:54:28.964Z,101563.81
2022-12-25T10:57:48.544Z,101551.88
2022-12-25T11:00:58.667Z,101580.09
2022-12-25T11:04:01.628Z,101579.31
2022-12-25T11:07:08.780Z,101594.63
2022-12-25T11:10:35.403Z,101593.16
2022-12-25T11:14:03.656Z,101586.16
2022-12-25T11:17:10.670Z,101601.41
2022-12-25T11:20:21.352Z,101595.00
2022-12-25T11:23:26.672Z,101597.28
2022-12-25T11:26:36.757Z,101606.38
2022-12-25T11:29:53.006Z,101603.63
2022-12-25T11:32:58.912Z,101605.44
2022-12-25T11:36:07.393Z,101601.28
2022-12-25T11:39:28.131Z,101612.88
2022-12-25T11:42:34.655Z,101600.75
2022-12-25T11:45:46.586Z,101609.28
2022-12-25T11:48:58.317Z,101601.25
2022-12-25T11:52:00.740Z,101611.53
2022-12-25T11:55:11.199Z,101617.63
2022-12-25T11:58:28.781Z,101609.16
2022-12-25T12:01:57.973Z,101624.09
2022-12-25T12:05:21.713Z,101647.44
2022-12-25T12:08:23.886Z,101629.47
2022-12-25T12:11:53.513Z,101635.69
2022-12-25T12:15:07.502Z,101643.59
2022-12-25T12:18:30.392Z,101641.09
2022-12-25T12:21:35.767Z,101653.25
2022-12-25T12:24:43.818Z,101638.81
2022-12-25T12:27:46.283Z,101637.28
2022-12-25T12:31:03.849Z,101639.38
2022-12-25T12:34:06.586Z,101638.47
2022-12-25T12:37:21.350Z,101644.88
2022-12-25T12:40:38.088Z,101660.47
2022-12-25T12:44:07.781Z,101668.00
2022-12-25T12:47:48.406Z,101668.06
2022-12-25T12:51:06.585Z,101671.59
2022-12-25T12:54:25.342Z,101684.44
2022-12-25T12:57:32.850Z,101683.69
2022-12-25T13:00:52.557Z,101692.41
2022-12-25T13:04:30.094Z,101700.09
2022-12-25T13:07:56.239Z,101691.00
2022-12-25T13:11:21.720Z,101702.19
2022-12-25T13:14:33.293Z,101708.22
2022-12-25T13:17:45.254Z,101713.31
2022-12-25T13:20:57.491Z,101710.03
2022-12-25T13:24:10.781Z,101709.38
2022-12-25T13:27:29.281Z,101704.38
2022-12-25T13:30:31.311Z,101714.22
2022-12-25T13:33:46.399Z,101729.47
2022-12-25T13:36:51.004Z,101726.25
2022-12-25T13:39:53.057Z,101748.38
2022-12-25T13:42:59.669Z,101745.78
2022-12-25T13:46:01.843Z,101746.88
2022-12-25T13:49:14.313Z,101755.81
2022-12-25T13:52:21.329Z,101749.63
2022-12-25T13:55:30.689Z,101765.88
2022-12-25T13:58:39.576Z,101753.84
2022-12-25T14:01:45.687Z,101761.28
2022-12-25T14:04:47.787Z,101761.91
2022-12-25T14:07:56.277Z,101755.88
2022-12-25T14:10:59.315Z,101777.06
2022-12-25T14:14:15.182Z,101762.19
2022-12-25T14:17:24.993Z,101784.91
2022-12-25T14:20:43.253Z,101778.72
2022-12-25T14:23:49.407Z,101774.56
2022-12-25T14:26:59.922Z,101760.88
2022-12-25T14:30:04.305Z,101783.13
2022-12-25T14:33:15.904Z,101780.91
2022-12-25T14:36:29.232Z,101785.88
2022-12-25T14:39:39.241Z,101795.69
2022-12-25T14:42:42.295Z,101807.00
2022-12-25T14:46:03.144Z,101795.56
2022-12-25T14:49:28.564Z,101787.47
2022-12-25T14:52:46.446Z,101817.53
2022-12-25T14:55:59.352Z,101815.66
2022-12-25T14:59:03.012Z,101821.38
2022-12-25T15:02:10.569Z,101830.97
2022-12-25T15:05:38.353Z,101826.47
2022-12-25T15:08:40.428Z,101831.91
2022-12-25T15:11:44.584Z,101829.75
2022-12-25T15:14:46.767Z,101834.44
2022-12-25T15:17:50.688Z,101840.81
2022-12-25T15:20:56.519Z,101853.44
2022-12-25T15:24:00.136Z,101859.41
2022-12-25T15:27:03.429Z,101832.09
2022-12-25T15:30:10.196Z,101848.59
2022-12-25T15:33:14.790Z,101858.69
2022-12-25T15:36:24.260Z,101875.69
2022-12-25T15:39:26.659Z,101860.84
2022-12-25T15:42:30.858Z,101872.50
2022-12-25T15:45:33.183Z,101847.50
2022-12-25T15:48:40.034Z,101876.34
2022-12-25T15:51:43.485Z,101862.34
2022-12-25T15:54:45.795Z,101883.22
2022-12-25T15:57:48.856Z,101869.13
2022-12-25T16:00:52.925Z,101898.97
2022-12-25T16:04:16.564Z,101886.66
2022-12-25T16:07:37.946Z,101882.34
2022-12-25T16:11:16.441Z,101887.78
2022-12-25T16:14:22.252Z,101886.72
2022-12-25T16:17:27.227Z,101866.25
2022-12-25T16:20:32.854Z,101885.31
2022-12-25T16:23:34.884Z,101856.34
2022-12-25T16:26:48.427Z,101899.28
2022-12-25T16:29:58.858Z,101907.72
2022-12-25T16:33:13.748Z,101870.31
2022-12-25T16:36:26.748Z,101906.16
2022-12-25T16:39:29.484Z,101897.56
2022-12-25T16:42:31.592Z,101898.25
2022-12-25T16:45:45.570Z,101906.31
2022-12-25T16:48:49.589Z,101904.00
2022-12-25T16:51:52.027Z,101911.53
2022-12-25T16:54:54.160Z,101914.69
2022-12-25T16:57:57.006Z,101905.69
2022-12-25T17:01:13.086Z,101905.59
2022-12-25T17:04:15.717Z,101922.50
2022-12-25T17:07:18.392Z,101916.66
2022-12-25T17:10:21.864Z,101931.13
2022-12-25T17:13:27.149Z,101947.97
2022-12-25T17:16:36.038Z,101949.06
2022-12-25T17:19:39.196Z,101936.94
2022-12-25T17:22:41.364Z,101923.38
2022-12-25T17:25:43.417Z,101929.09
2022-12-25T17:28:52.538Z,101924.38
2022-12-25T17:31:56.137Z,101935.00
2022-12-25T17:34:58.413Z,101947.78
2022-12-25T17:38:02.131Z,101931.09
2022-12-25T17:41:06.898Z,101936.72
2022-12-25T17:44:10.023Z,101931.91
2022-12-25T17:47:12.656Z,101922.69
2022-12-25T17:50:22.789Z,101939.44
2022-12-25T17:53:39.526Z,101896.66
2022-12-25T17:56:57.105Z,101869.56
2022-12-25T18:04:15.960Z,101951.91
2022-12-25T18:07:29.531Z,101852.56
2022-12-25T18:10:38.963Z,101944.28
2022-12-25T18:13:43.634Z,101927.09
2022-12-25T18:16:47.327Z,101941.19
2022-12-25T18:19:51.487Z,101940.50
2022-12-25T18:22:53.571Z,101946.22
2022-12-25T18:25:56.114Z,101948.44
2022-12-25T18:28:58.691Z,101958.44
2022-12-25T18:32:01.371Z,101958.72
2022-12-25T18:35:03.906Z,101950.31
2022-12-25T18:38:11.688Z,101972.31
2022-12-25T18:41:14.687Z,101958.94
2022-12-25T18:44:17.023Z,101979.25
2022-12-25T18:47:19.311Z,101976.97
2022-12-25T18:50:21.664Z,101978.53
2022-12-25T18:53:24.131Z,101965.06
2022-12-25T18:56:26.117Z,101962.72
2022-12-25T18:59:29.885Z,101973.19
2022-12-25T19:02:32.076Z,101971.78
2022-12-25T19:05:37.165Z,101963.84
2022-12-25T19:08:39.268Z,101984.75
2022-12-25T19:11:46.594Z,101987.97
2022-12-25T19:14:49.704Z,102008.19
2022-12-25T19:17:51.884Z,102010.47
2022-12-25T19:20:53.964Z,102001.25
2022-12-25T19:23:56.243Z,102011.31
2022-12-25T19:26:58.344Z,102013.41
2022-12-25T19:30:00.477Z,102010.50
2022-12-25T19:33:02.587Z,102031.72
2022-12-25T19:36:07.607Z,102024.63
2022-12-25T19:39:11.847Z,102035.63
2022-12-25T19:42:16.149Z,102050.13
2022-12-25T19:45:18.299Z,102052.31
2022-12-25T19:48:25.153Z,102063.56
2022-12-25T19:51:29.599Z,102055.91
2022-12-25T19:54:31.728Z,102059.31
2022-12-25T19:57:36.808Z,102056.28
2022-12-25T20:00:40.563Z,102047.13
2022-12-25T20:03:46.744Z,102064.09
2022-12-25T20:06:48.984Z,102044.91
2022-12-25T20:09:51.113Z,102061.50
2022-12-25T20:13:02.148Z,102067.56
2022-12-25T20:16:06.362Z,102067.69
2022-12-25T20:19:10.052Z,102074.81
2022-12-25T20:22:12.447Z,102075.16
2022-12-25T20:25:14.559Z,102069.00
2022-12-25T20:28:16.651Z,102078.84
2022-12-25T20:31:22.747Z,102092.06
2022-12-25T20:34:25.525Z,102081.84
2022-12-25T20:37:27.544Z,102060.13
2022-12-25T20:40:37.578Z,102061.59
2022-12-25T20:43:52.516Z,102066.50
2022-12-25T20:46:55.034Z,102067.69
2022-12-25T20:49:57.856Z,102073.81
2022-12-25T20:53:00.004Z,102085.66
2022-12-25T20:56:03.957Z,102096.66
2022-12-25T20:59:06.222Z,102096.66
2022-12-25T21:02:10.990Z,102102.09
2022-12-25T21:05:33.935Z,102101.25
2022-12-25T21:08:37.283Z,102079.28
2022-12-25T21:11:39.599Z,102112.09
2022-12-25T21:14:41.659Z,102071.78
2022-12-25T21:17:43.800Z,102114.22
2022-12-25T21:20:51.104Z,102095.13
2022-12-25T21:23:55.449Z,102106.16
2022-12-25T21:26:57.489Z,102101.63
2022-12-25T21:29:59.574Z,102107.03
2022-12-25T21:33:35.448Z,102112.84
2022-12-25T21:36:40.049Z,102106.72
2022-12-25T21:39:43.728Z,102109.16
2022-12-25T21:42:46.001Z,102128.44
2022-12-25T21:45:48.055Z,102124.78
2022-12-25T21:48:50.674Z,102106.19
2022-12-25T21:52:07.912Z,102104.34
2022-12-25T21:55:10.149Z,102138.50
2022-12-25T21:58:12.912Z,102122.09
2022-12-25T22:01:18.094Z,102139.69
2022-12-25T22:04:22.801Z,102150.50
2022-12-25T22:07:27.206Z,102139.56
2022-12-25T22:10:31.169Z,102144.78
2022-12-25T22:13:51.877Z,102154.06
2022-12-25T22:17:12.527Z,102137.22
2022-12-25T22:20:31.652Z,102146.41
2022-12-25T22:23:33.744Z,102150.06
2022-12-25T22:26:36.029Z,102144.16
2022-12-25T22:29:38.278Z,102144.06
2022-12-25T22:32:41.072Z,102138.78
2022-12-25T22:35:43.372Z,102137.09
2022-12-25T22:38:45.470Z,102135.84
2022-12-25T22:41:48.487Z,102154.25
2022-12-25T22:44:50.619Z,102163.69
2022-12-25T22:47:52.617Z,102175.81
2022-12-25T22:50:54.599Z,102148.28
2022-12-25T22:54:03.405Z,102136.50
2022-12-25T22:57:06.352Z,102142.88
2022-12-25T23:00:09.092Z,102159.66
2022-12-25T23:03:11.300Z,102172.63
2022-12-25T23:06:13.424Z,102165.53
2022-12-25T23:09:24.373Z,102184.00
2022-12-25T23:12:45.674Z,102175.06
2022-12-25T23:15:48.196Z,102171.50
2022-12-25T23:19:09.100Z,102167.78
2022-12-25T23:22:31.059Z,102175.50
2022-12-25T23:25:53.895Z,102187.53
2022-12-25T23:29:14.450Z,102160.78
2022-12-25T23:32:24.838Z,102169.03
2022-12-25T23:35:27.048Z,102172.84
2022-12-25T23:38:29.097Z,102163.00
2022-12-25T23:41:31.350Z,102160.59
2022-12-25T23:44:34.876Z,102177.66
2022-12-25T23:47:36.955Z,102153.16
2022-12-25T23:50:39.063Z,102192.88
2022-12-25T23:53:41.183Z,102194.41
2022-12-25T23:56:43.929Z,102215.22
2022-12-25T23:59:46.243Z,102194.69
